Clifton, NJ

7:22 AM EST on November 28, 2014 (GMT -0500)
Newark International | Change Station
CLOSE
Current Station
Airport
Location: Newark,
Elevation: 30 ft
Nearby Weather Stations

Elev 30 ft 40.68 °N, 74.17 °W | Updated 31 minutes ago

Clear
Clear
29 °F
Feels Like 25 °F
N
4
Wind Variable Wind from West

Today
High -- | Low -- °F
--% Chance of Precip.
Yesterday
High -- | Low -- °F
Precip. -- in
6:58 AM 4:30 PM
Waxing Crescent, 40% visible
Pressure 30.14 in
Visibility 10.0 miles
Clouds Few 5000 ft
Mostly Cloudy 9000 ft
Windchill 25 °F
Dew Point 23 °F
Humidity 78%
Rainfall 0.00 in
Snow Depth Not available.
UV 0 out of 12
Pollen .10 out of 12
Air Quality Not available.
Flu Activity Not available.
METAR KEWR 281151Z 26003KT 10SM FEW050 BKN090 M02/M05 A3015 RMK AO2 SLP207 70001 T10171050 11006 21022 53015 $

More Conditions Fewer Conditions

Pressure 30.14 in
Visibility 10.0 miles
Clouds Few 5000 ft
Mostly Cloudy 9000 ft
Windchill 25 °F
Dew Point 23 °F
Humidity 78%
Rainfall 0.00 in
Snow Depth Not available.
UV 0 out of 12
Pollen .10 out of 12
Air Quality Not available.
Flu Activity Not available.
METAR KEWR 281151Z 26003KT 10SM FEW050 BKN090 M02/M05 A3015 RMK AO2 SLP207 70001 T10171050 11006 21022 53015 $

More Conditions Fewer Conditions

10-Day Weather Forecast

Almanac

Astronomy

Nov. 28, 2014 Rise Set
Actual Time
Civil Twilight
Nautical Twilight
Astronomical Twilight
Moon
Length of Visible Light
Length of Day
Tomorrow will be .
, % of the Moon is Illuminated

Today's Extremes

State Highs State Lows

Community

WunderPhotos

Upload Photos

1,774,199 photos uploaded!

WunderBlogs® & News

Nearby

Air Quality

  Air Quality AQ Index Pollutant
Not available.

Snow Depth

Station Depth Elevation

Earthquake Activity

City Distance Mag. Time & Date
Minimum magnitude displayed is 2.5.

Coastal Water Temperatures

Place Temperature

Nearby Weather Stations